Metar Flugplatz Niederstetten

ETHN 291920Z 24002KT 9999 SCT006 BKN022 BKN055 10/09 Q1019 WHT



Temperatur Niederstetten
10 Grad Celsius

QNH Niederstetten
1019
==============================================================

TAF Niederstetten:

TAF ETHN 291027Z 2911/3002 24010KT 9999 NSW FEW240 TEMPO 2911/2916 26012G22KT 9999 NSW SCT035 BKN240



Alle Angaben ohne Gewähr